Time;durP1;ratioP1;P1;durP2;ratioP2;P2;SDS_P1;SDS_P2;PMS_P1;PMS_P2;Temp;Humidity;BMP_temperature;BMP_pressure;BME280_temperature;BME280_humidity;BME280_pressure;Samples;Min_cycle;Max_cycle;Signal;HPM_P1;HPM_P2
2021/01/14 00:00:25;;;;;;;24.00;10.57;;;;;;;3.15;63.78;99446.72;5063876;28;20021;-65
2021/01/14 00:02:51;;;;;;;30.47;12.20;;;;;;;3.24;62.98;99450.38;5063969;28;20033;-67
2021/01/14 00:05:16;;;;;;;24.77;11.13;;;;;;;3.33;62.44;99459.28;5063640;28;20036;-65
2021/01/14 00:07:42;;;;;;;28.50;12.27;;;;;;;3.26;62.55;99452.88;5064351;28;20064;-65
2021/01/14 00:10:10;;;;;;;24.30;11.43;;;;;;;3.26;62.24;99464.19;5062537;28;20025;-66
2021/01/14 00:12:36;;;;;;;29.70;13.47;;;;;;;3.35;62.21;99460.81;5063754;28;20286;-67
2021/01/14 00:15:03;;;;;;;31.27;13.37;;;;;;;3.30;61.81;99459.53;5062525;28;20052;-66
2021/01/14 00:17:28;;;;;;;26.73;13.33;;;;;;;3.22;61.97;99454.91;5064088;28;20060;-66
2021/01/14 00:19:54;;;;;;;32.63;14.37;;;;;;;3.27;62.00;99452.75;5063690;28;20092;-66
2021/01/14 00:22:19;;;;;;;35.17;14.37;;;;;;;3.40;62.04;99453.44;5064018;28;20138;-66
2021/01/14 00:24:45;;;;;;;29.13;12.97;;;;;;;3.43;61.56;99450.56;5063452;28;20028;-67
2021/01/14 00:27:11;;;;;;;29.00;12.70;;;;;;;3.37;60.86;99453.69;5063865;28;20044;-67
2021/01/14 00:29:36;;;;;;;30.80;13.10;;;;;;;3.33;61.51;99447.03;5063397;28;20033;-67
2021/01/14 00:32:03;;;;;;;30.50;13.50;;;;;;;3.28;61.31;99456.22;5063697;28;20045;-66
2021/01/14 00:34:28;;;;;;;26.00;12.80;;;;;;;3.32;60.97;99465.47;5062336;28;20039;-66
2021/01/14 00:39:38;;;;;;;27.73;12.50;;;;;;;3.39;60.53;99459.63;5063276;28;20085;-65
2021/01/14 00:42:04;;;;;;;20.20;10.23;;;;;;;3.36;60.32;99449.41;5063310;28;20045;-66
2021/01/14 00:44:29;;;;;;;25.70;9.77;;;;;;;3.27;60.52;99457.16;5063170;28;20037;-67
2021/01/14 00:46:55;;;;;;;22.37;10.03;;;;;;;3.14;60.03;99449.47;5063456;28;20032;-67
2021/01/14 00:49:22;;;;;;;19.97;9.33;;;;;;;3.14;59.75;99458.13;5062908;28;20028;-67
2021/01/14 00:51:48;;;;;;;15.97;8.00;;;;;;;3.12;59.55;99459.19;5063065;28;20036;-67
2021/01/14 00:54:13;;;;;;;22.73;8.50;;;;;;;3.26;59.37;99464.19;5062819;28;20037;-66
2021/01/14 00:56:39;;;;;;;19.53;7.83;;;;;;;3.22;58.94;99462.75;5062045;28;20048;-67
2021/01/14 00:59:04;;;;;;;15.93;7.73;;;;;;;3.12;59.44;99460.03;5062990;28;20033;-67
2021/01/14 01:01:31;;;;;;;19.23;7.47;;;;;;;3.23;58.92;99451.34;5062794;28;20044;-65
2021/01/14 01:03:56;;;;;;;19.10;8.40;;;;;;;3.30;58.26;99449.06;5062734;28;20096;-67
2021/01/14 01:06:23;;;;;;;18.33;7.97;;;;;;;3.27;58.47;99444.91;5062953;28;20037;-67
2021/01/14 01:08:50;;;;;;;20.13;8.70;;;;;;;3.24;57.69;99455.63;5062952;28;20044;-66
2021/01/14 01:11:25;;;;;;;18.27;8.43;;;;;;;3.39;57.47;99446.53;5062501;28;20048;-67
2021/01/14 01:13:51;;;;;;;21.70;7.83;;;;;;;3.11;58.14;99450.50;5062764;28;20033;-68
2021/01/14 01:16:17;;;;;;;16.97;7.73;;;;;;;3.30;57.57;99442.03;5062695;28;20174;-66
2021/01/14 01:18:43;;;;;;;18.33;8.23;;;;;;;3.07;57.95;99437.78;5062717;28;20037;-66
2021/01/14 01:21:09;;;;;;;17.33;8.00;;;;;;;3.11;58.38;99434.81;5062558;28;20307;-65
2021/01/14 01:23:35;;;;;;;19.93;8.70;;;;;;;3.07;58.27;99424.72;5062658;28;20059;-68
2021/01/14 01:26:00;;;;;;;16.97;8.40;;;;;;;3.20;57.89;99428.03;5062611;28;20024;-67
2021/01/14 01:28:26;;;;;;;15.97;7.70;;;;;;;2.89;58.27;99388.59;5062707;28;20070;-67
2021/01/14 01:30:51;;;;;;;18.30;8.03;;;;;;;3.10;58.66;99430.53;5062415;28;20021;-67
2021/01/14 01:33:17;;;;;;;15.10;7.90;;;;;;;3.14;58.31;99418.06;5062492;28;20102;-67
2021/01/14 01:35:42;;;;;;;19.80;8.00;;;;;;;2.98;58.41;99423.66;5062361;28;20250;-67
2021/01/14 01:38:07;;;;;;;18.40;8.10;;;;;;;2.76;58.55;99410.63;5063165;28;20037;-67
2021/01/14 01:40:33;;;;;;;18.77;8.47;;;;;;;2.79;59.09;99407.75;5062342;28;20104;-66
2021/01/14 01:42:58;;;;;;;19.80;8.87;;;;;;;3.03;58.01;99411.03;5062570;28;20041;-65
2021/01/14 01:45:24;;;;;;;15.60;7.57;;;;;;;2.76;57.91;99408.84;5063856;28;20035;-66
2021/01/14 01:47:50;;;;;;;20.27;8.37;;;;;;;2.81;57.60;99408.47;5066955;28;20101;-67
2021/01/14 01:50:18;;;;;;;16.40;7.93;;;;;;;2.88;56.95;99414.88;5066264;28;20039;-66
2021/01/14 01:52:44;;;;;;;16.90;7.30;;;;;;;2.84;57.40;99414.28;5066916;28;20125;-65
2021/01/14 01:55:10;;;;;;;17.33;6.87;;;;;;;3.00;57.72;99407.84;5066289;28;20037;-66
2021/01/14 01:57:36;;;;;;;16.53;7.70;;;;;;;3.03;56.51;99404.97;5066891;28;20037;-67
2021/01/14 02:00:03;;;;;;;18.43;7.80;;;;;;;2.86;56.36;99411.56;5066269;28;20084;-65
2021/01/14 02:02:29;;;;;;;18.87;8.80;;;;;;;2.90;57.07;99402.50;5066613;28;20060;-67
2021/01/14 02:04:55;;;;;;;16.73;8.00;;;;;;;2.82;56.91;99410.97;5065950;28;20033;-65
2021/01/14 02:07:31;;;;;;;17.10;9.20;;;;;;;2.89;56.84;99416.53;5066153;28;20287;-66
2021/01/14 02:09:56;;;;;;;23.17;9.83;;;;;;;2.83;57.29;99420.47;5064861;28;20033;-67
2021/01/14 02:12:35;;;;;;;16.83;8.70;;;;;;;2.80;57.43;99412.88;5065920;28;20056;-66
2021/01/14 02:15:01;;;;;;;23.10;10.13;;;;;;;2.79;57.09;99413.00;5065987;28;20096;-67
2021/01/14 02:17:28;;;;;;;23.43;9.93;;;;;;;2.72;58.05;99411.81;5065036;28;20033;-67
2021/01/14 02:19:55;;;;;;;19.67;9.37;;;;;;;2.82;56.93;99412.75;5064483;28;20028;-66
2021/01/14 02:22:27;;;;;;;20.30;8.20;;;;;;;2.84;57.31;99413.47;5066280;28;20063;-65
2021/01/14 02:25:05;;;;;;;19.40;7.87;;;;;;;2.90;56.93;99415.59;5065720;28;20056;-65
2021/01/14 02:27:31;;;;;;;18.23;7.80;;;;;;;2.80;57.50;99414.66;5066178;28;20045;-68
2021/01/14 02:30:00;;;;;;;20.03;9.90;;;;;;;2.69;57.88;99417.28;5065630;28;20028;-66
2021/01/14 02:32:25;;;;;;;17.93;8.93;;;;;;;2.72;57.79;99414.44;5064448;28;20323;-66
2021/01/14 02:34:51;;;;;;;19.27;9.03;;;;;;;2.57;58.19;99408.63;5065392;28;20036;-67
2021/01/14 02:37:17;;;;;;;20.40;8.90;;;;;;;2.50;58.51;99410.88;5065977;28;20103;-67
2021/01/14 02:39:43;;;;;;;23.53;10.23;;;;;;;2.49;58.86;99411.81;5064360;28;20314;-66
2021/01/14 02:42:08;;;;;;;18.57;9.23;;;;;;;2.47;59.45;99405.06;5065840;28;20100;-66
2021/01/14 02:44:34;;;;;;;18.20;8.87;;;;;;;2.63;58.34;99404.69;5065459;28;20041;-67
2021/01/14 02:47:00;;;;;;;18.77;10.17;;;;;;;2.68;58.41;99419.06;5065757;28;20372;-67
2021/01/14 02:49:32;;;;;;;18.97;8.90;;;;;;;2.59;58.40;99405.88;5064019;28;20075;-68
2021/01/14 02:52:02;;;;;;;25.07;10.00;;;;;;;2.61;58.83;99411.81;5065687;28;20043;-67
2021/01/14 02:54:29;;;;;;;20.27;10.30;;;;;;;2.44;59.00;99419.19;5065167;28;20116;-67
2021/01/14 02:56:55;;;;;;;20.77;10.13;;;;;;;2.49;59.03;99411.81;5063336;28;20115;-67
2021/01/14 02:59:20;;;;;;;22.07;9.17;;;;;;;2.48;59.54;99419.78;5065134;28;20273;-66
2021/01/14 03:01:47;;;;;;;17.97;8.53;;;;;;;2.55;59.22;99407.91;5065365;28;20100;-67
2021/01/14 03:04:12;;;;;;;21.23;9.87;;;;;;;2.47;59.16;99405.88;5064810;28;20361;-68
2021/01/14 03:06:38;;;;;;;18.50;8.73;;;;;;;2.41;59.79;99398.53;5065247;28;20036;-67
2021/01/14 03:09:04;;;;;;;18.53;8.23;;;;;;;2.47;59.44;99397.22;5065011;28;20025;-67
2021/01/14 03:11:32;;;;;;;20.13;9.47;;;;;;;2.28;60.13;99397.81;5064757;28;20104;-66
2021/01/14 03:13:58;;;;;;;21.10;10.13;;;;;;;2.35;59.80;99390.31;5064848;28;20100;-67
2021/01/14 03:16:25;;;;;;;23.73;9.83;;;;;;;2.13;60.44;99394.59;5065258;28;20118;-67
2021/01/14 03:18:51;;;;;;;23.60;11.73;;;;;;;2.19;61.13;99393.28;5065005;28;20029;-67
2021/01/14 03:21:26;;;;;;;22.60;9.47;;;;;;;2.29;60.64;99394.25;5064737;28;20123;-67
2021/01/14 03:23:52;;;;;;;22.10;9.93;;;;;;;2.31;60.79;99389.72;5064747;28;20036;-65
2021/01/14 03:26:19;;;;;;;20.03;8.30;;;;;;;2.11;61.68;99382.59;5063577;28;20040;-67
2021/01/14 03:28:45;;;;;;;23.23;7.90;;;;;;;2.28;61.17;99394.38;5064728;28;20033;-65
2021/01/14 03:31:12;;;;;;;16.50;7.60;;;;;;;2.30;60.21;99390.69;5064470;28;20315;-67
2021/01/14 03:33:38;;;;;;;15.90;7.77;;;;;;;2.24;60.53;99389.38;5064461;28;20021;-67
2021/01/14 03:36:05;;;;;;;16.20;7.93;;;;;;;2.14;60.96;99388.41;5063366;28;21022;-65
2021/01/14 03:38:34;;;;;;;22.87;8.70;;;;;;;2.15;61.26;99391.84;5064565;28;20217;-65
2021/01/14 03:40:59;;;;;;;15.50;7.70;;;;;;;2.36;60.19;99398.03;5064535;28;20021;-66
2021/01/14 03:43:25;;;;;;;15.73;8.03;;;;;;;2.32;60.12;99401.84;5064486;28;20228;-67
2021/01/14 03:45:50;;;;;;;19.13;7.90;;;;;;;2.09;60.59;99392.31;5063009;28;20033;-67
2021/01/14 03:48:16;;;;;;;19.13;8.43;;;;;;;2.13;60.82;99393.75;5064607;28;20033;-67
2021/01/14 03:50:42;;;;;;;16.47;8.07;;;;;;;2.01;60.89;99392.03;5064076;28;20092;-67
2021/01/14 03:53:07;;;;;;;17.83;7.43;;;;;;;2.20;60.77;99400.19;5064118;28;20049;-67
2021/01/14 03:55:33;;;;;;;14.37;7.70;;;;;;;2.28;60.55;99395.19;5062929;28;20035;-67
2021/01/14 03:57:58;;;;;;;14.73;7.70;;;;;;;2.28;60.47;99391.75;5063180;28;20139;-67
2021/01/14 04:00:24;;;;;;;17.40;8.53;;;;;;;2.29;59.82;99383.78;5064002;28;20051;-67
2021/01/14 04:02:49;;;;;;;16.37;7.30;;;;;;;2.19;59.59;99399.34;5063933;28;20115;-65
2021/01/14 04:05:15;;;;;;;19.60;8.57;;;;;;;2.07;60.80;99391.59;5063689;28;20039;-67
2021/01/14 04:07:42;;;;;;;25.63;10.30;;;;;;;2.19;59.59;99388.06;5064389;28;20041;-67
2021/01/14 04:10:07;;;;;;;21.77;10.70;;;;;;;2.30;60.22;99403.75;5063687;28;20043;-67
2021/01/14 04:12:33;;;;;;;18.50;8.90;;;;;;;2.19;60.49;99395.91;5064127;28;20041;-66
2021/01/14 04:14:58;;;;;;;13.73;7.10;;;;;;;2.32;60.10;99395.78;5063699;28;20304;-67
2021/01/14 04:17:25;;;;;;;13.83;7.20;;;;;;;2.27;59.85;99392.69;5064222;28;20048;-66
2021/01/14 04:19:51;;;;;;;16.13;7.03;;;;;;;2.19;60.03;99398.50;5063533;28;20036;-67
2021/01/14 04:22:16;;;;;;;17.53;7.57;;;;;;;2.25;59.59;99392.81;5064083;28;20037;-67
2021/01/14 04:24:42;;;;;;;13.23;7.77;;;;;;;2.11;59.25;99395.66;5063775;28;20029;-68
2021/01/14 04:27:07;;;;;;;12.87;7.77;;;;;;;2.03;59.52;99395.38;5063874;28;20047;-67
2021/01/14 04:29:33;;;;;;;13.97;7.30;;;;;;;2.04;59.02;99399.66;5063446;28;20033;-69
2021/01/14 04:31:59;;;;;;;17.93;7.43;;;;;;;1.95;59.46;99388.13;5062215;28;20032;-69
2021/01/14 04:34:24;;;;;;;15.60;6.80;;;;;;;1.92;59.65;99389.19;5063072;28;20040;-68
2021/01/14 04:37:00;;;;;;;15.13;6.93;;;;;;;2.35;58.43;99377.25;5063733;28;20048;-69
2021/01/14 04:39:26;;;;;;;16.60;6.80;;;;;;;1.99;58.63;99373.88;5061969;28;20341;-68
2021/01/14 04:41:59;;;;;;;16.57;7.07;;;;;;;1.82;59.63;99372.56;5062288;28;20087;-69
2021/01/14 04:44:26;;;;;;;16.27;7.07;;;;;;;1.85;60.11;99368.88;5063188;28;20318;-69
2021/01/14 04:47:10;;;;;;;20.13;7.83;;;;;;;1.90;59.85;99378.03;5062147;28;20028;-67
2021/01/14 04:49:35;;;;;;;16.33;7.35;;;;;;;1.78;60.20;99373.72;5063051;28;20052;-67
2021/01/14 04:52:05;;;;;;;14.73;6.83;;;;;;;1.91;59.69;99366.63;5063417;28;20266;-69
2021/01/14 04:54:35;;;;;;;12.23;6.03;;;;;;;1.89;59.35;99363.31;5061881;28;20204;-69
2021/01/14 04:57:18;;;;;;;13.30;6.27;;;;;;;1.82;59.60;99362.09;5063496;28;20036;-68
2021/01/14 04:59:52;;;;;;;11.27;5.28;;;;;;;1.78;59.42;99357.25;5063137;28;20263;-68
2021/01/14 05:02:21;;;;;;;16.35;7.43;;;;;;;1.70;59.38;99354.38;5063314;28;20044;-69
2021/01/14 05:04:52;;;;;;;16.63;7.40;;;;;;;1.71;59.59;99358.66;5063014;28;20040;-69
2021/01/14 05:07:32;;;;;;;12.97;6.77;;;;;;;1.73;59.65;99367.19;5063488;28;20029;-68
2021/01/14 05:10:03;;;;;;;12.73;5.63;;;;;;;1.78;59.40;99365.06;5062994;28;20021;-68
2021/01/14 05:12:34;;;;;;;14.27;6.53;;;;;;;1.82;58.98;99363.88;5062656;28;20112;-68
2021/01/14 05:15:02;;;;;;;16.27;6.80;;;;;;;1.95;58.33;99369.84;5062636;28;20083;-69
2021/01/14 05:17:28;;;;;;;16.43;7.23;;;;;;;1.77;59.60;99366.84;5063151;28;20059;-70
2021/01/14 05:19:55;;;;;;;18.07;7.83;;;;;;;1.79;59.55;99362.34;5062342;28;20028;-69
2021/01/14 05:22:24;;;;;;;18.43;9.43;;;;;;;1.98;58.90;99364.38;5063088;28;20040;-69
2021/01/14 05:25:09;;;;;;;19.53;8.67;;;;;;;1.85;59.19;99364.50;5062558;28;20028;-69
2021/01/14 05:27:36;;;;;;;21.73;8.30;;;;;;;1.80;58.92;99357.94;5062649;28;20260;-68
2021/01/14 05:30:06;;;;;;;18.67;7.73;;;;;;;1.93;58.51;99366.53;5062569;28;20029;-69
2021/01/14 05:32:39;;;;;;;18.87;9.37;;;;;;;1.88;58.72;99366.03;5062901;28;20341;-67
2021/01/14 05:35:07;;;;;;;21.67;10.63;;;;;;;2.03;58.79;99369.25;5062367;28;20067;-69
2021/01/14 05:37:43;;;;;;;22.20;10.07;;;;;;;2.06;58.42;99363.81;5062548;28;20041;-67
2021/01/14 05:40:22;;;;;;;21.40;10.43;;;;;;;1.93;58.56;99366.53;5062385;28;20037;-67
2021/01/14 05:43:05;;;;;;;26.63;10.97;;;;;;;2.01;57.71;99364.16;5063081;28;20222;-69
2021/01/14 05:45:32;;;;;;;21.67;10.17;;;;;;;1.89;57.77;99368.53;5061215;28;20307;-67
2021/01/14 05:48:07;;;;;;;20.10;9.80;;;;;;;2.01;57.74;99364.16;5061511;28;20245;-70
2021/01/14 05:50:42;;;;;;;23.53;9.63;;;;;;;2.17;57.15;99363.84;5062547;28;20139;-69
2021/01/14 05:53:18;;;;;;;32.83;8.90;;;;;;;2.14;57.41;99370.13;5062894;28;20323;-69
2021/01/14 05:55:45;;;;;;;20.23;10.53;;;;;;;2.19;57.22;99364.56;5062345;28;20068;-68
2021/01/14 05:58:20;;;;;;;21.10;10.67;;;;;;;2.10;57.23;99366.09;5062324;28;20262;-68
2021/01/14 06:00:47;;;;;;;20.83;9.13;;;;;;;1.84;57.71;99356.78;5062130;28;20087;-70
2021/01/14 06:03:30;;;;;;;17.70;8.10;;;;;;;1.99;56.41;99362.59;5062455;28;20025;-70
2021/01/14 06:05:56;;;;;;;18.47;8.23;;;;;;;1.96;56.36;99366.28;5062514;28;20029;-68
2021/01/14 06:08:23;;;;;;;20.63;9.13;;;;;;;2.05;56.16;99369.97;5062414;28;20329;-68
2021/01/14 06:10:49;;;;;;;20.77;8.43;;;;;;;2.10;56.33;99360.88;5062010;28;20249;-67
2021/01/14 06:13:14;;;;;;;23.70;9.63;;;;;;;1.97;55.94;99367.13;5062180;28;20064;-68
2021/01/14 06:15:40;;;;;;;30.60;11.77;;;;;;;2.07;55.60;99368.06;5062113;28;20048;-68
2021/01/14 06:18:11;;;;;;;31.73;13.23;;;;;;;2.19;54.78;99370.59;5061505;28;20063;-67
2021/01/14 06:20:53;;;;;;;20.70;9.13;;;;;;;2.08;55.46;99372.34;5062034;28;20029;-67
2021/01/14 06:23:22;;;;;;;14.13;6.70;;;;;;;1.96;55.18;99368.06;5062159;28;20037;-68
2021/01/14 06:25:49;;;;;;;17.53;7.13;;;;;;;1.99;55.25;99381.72;5061923;28;20029;-70
2021/01/14 06:28:15;;;;;;;17.33;8.30;;;;;;;2.13;54.49;99378.91;5062035;28;20048;-68
2021/01/14 06:31:07;;;;;;;15.33;6.17;;;;;;;2.11;54.06;99374.75;5062032;28;20029;-68
2021/01/14 06:33:34;;;;;;;18.70;7.73;;;;;;;1.95;54.12;99374.25;5064612;28;20047;-67
2021/01/14 06:36:07;;;;;;;17.97;8.70;;;;;;;2.24;54.29;99384.16;5065642;28;20311;-67
2021/01/14 06:38:46;;;;;;;18.43;7.23;;;;;;;2.35;53.54;99375.47;5065789;28;20036;-69
2021/01/14 06:41:19;;;;;;;13.77;6.20;;;;;;;2.34;52.73;99378.22;5065446;28;20037;-66
2021/01/14 06:43:47;;;;;;;13.25;4.20;;;;;;;2.43;52.71;99372.28;5065582;28;20028;-68
2021/01/14 06:46:20;;;;;;;14.93;6.67;;;;;;;2.25;52.61;99377.16;5065231;28;20238;-69
2021/01/14 06:49:11;;;;;;;8.45;4.68;;;;;;;2.24;53.42;99375.47;5065482;28;20040;-67
2021/01/14 06:51:55;;;;;;;27.07;5.87;;;;;;;2.22;53.11;99373.00;5063841;28;20068;-67
2021/01/14 06:54:22;;;;;;;13.18;6.20;;;;;;;2.33;52.99;99364.31;5065101;28;20029;-69
2021/01/14 06:56:57;;;;;;;11.57;5.90;;;;;;;2.24;53.56;99370.25;5065441;28;20032;-70
2021/01/14 06:59:24;;;;;;;17.97;5.93;;;;;;;2.30;52.97;99374.19;5064968;28;20033;-75
2021/01/14 07:01:58;;;;;;;17.50;5.87;;;;;;;2.51;53.57;99377.72;5063952;28;20036;-73
2021/01/14 07:05:00;;;;;;;10.73;4.43;;;;;;;2.67;52.17;99378.19;5063443;28;20116;-73
2021/01/14 07:07:29;;;;;;;13.43;5.43;;;;;;;2.75;52.55;99381.03;5065199;28;20028;-72
2021/01/14 07:10:10;;;;;;;13.77;5.00;;;;;;;2.61;52.30;99370.00;5064297;28;20060;-72
2021/01/14 07:12:38;;;;;;;14.30;4.57;;;;;;;2.68;52.56;99377.22;5064655;28;20052;-73
2021/01/14 07:15:07;;;;;;;14.73;5.00;;;;;;;2.93;52.90;99391.81;5064378;28;20029;-71
2021/01/14 07:17:34;;;;;;;10.43;4.63;;;;;;;3.05;51.62;99382.16;5065057;28;20067;-70
2021/01/14 07:20:01;;;;;;;15.10;6.63;;;;;;;3.02;51.28;99387.63;5063239;28;20055;-68
2021/01/14 07:22:30;;;;;;;11.97;6.57;;;;;;;3.25;51.57;99393.66;5063128;28;20116;-67
2021/01/14 07:24:59;;;;;;;15.93;5.60;;;;;;;3.27;50.53;99378.66;5064342;28;20025;-70
2021/01/14 07:27:26;;;;;;;15.07;5.63;;;;;;;3.62;50.27;99387.06;5064809;28;20029;-70
2021/01/14 07:29:55;;;;;;;12.23;5.13;;;;;;;3.99;50.07;99376.16;5064350;28;20024;-71
2021/01/14 07:32:54;;;;;;;15.63;6.33;;;;;;;4.22;49.52;99377.69;5064291;28;20242;-72
2021/01/14 07:35:44;;;;;;;18.67;6.77;;;;;;;4.18;49.74;99380.69;5064144;28;20305;-70
2021/01/14 07:38:16;;;;;;;13.20;6.10;;;;;;;4.38;49.76;99375.41;5063106;28;20060;-71
2021/01/14 07:40:43;;;;;;;11.10;5.03;;;;;;;4.34;48.85;99360.06;5063632;28;20074;-75
2021/01/14 07:43:11;;;;;;;8.33;4.83;;;;;;;4.67;48.73;99356.31;5064229;28;20044;-72
2021/01/14 07:45:37;;;;;;;10.00;4.43;;;;;;;4.60;47.91;99360.44;5064056;28;20314;-69
2021/01/14 07:48:21;;;;;;;12.93;5.43;;;;;;;4.54;47.37;99348.69;5063965;28;20044;-69
2021/01/14 07:51:03;;;;;;;13.35;4.90;;;;;;;4.62;47.01;99354.09;5057460;28;20088;-73
2021/01/14 07:53:29;;;;;;;11.20;5.00;;;;;;;4.64;47.00;99349.56;5062298;28;20033;-68
2021/01/14 07:55:54;;;;;;;13.37;5.47;;;;;;;4.88;46.53;99356.22;5063845;28;20031;-68
2021/01/14 07:58:22;;;;;;;13.67;5.23;;;;;;;4.82;45.88;99358.44;5055733;28;20075;-68
2021/01/14 08:01:07;;;;;;;10.07;4.40;;;;;;;4.62;45.56;99361.13;5043800;28;20025;-68
2021/01/14 08:03:42;;;;;;;8.63;4.20;;;;;;;4.55;46.24;99365.25;5043803;28;20226;-66
2021/01/14 08:06:22;;;;;;;17.10;4.53;;;;;;;4.71;45.68;99355.09;5044582;28;20025;-68
2021/01/14 08:08:53;;;;;;;9.30;3.73;;;;;;;4.56;45.41;99367.75;5064193;28;20056;-66
2021/01/14 08:11:20;;;;;;;11.10;3.77;;;;;;;4.60;44.85;99365.69;5063603;28;20033;-68
2021/01/14 08:14:21;;;;;;;10.83;4.50;;;;;;;4.91;45.56;99387.44;5063750;28;20040;-66
2021/01/14 08:16:54;;;;;;;11.57;4.63;;;;;;;4.75;44.45;99382.72;5062872;28;20056;-68
2021/01/14 08:19:23;;;;;;;15.40;4.70;;;;;;;4.94;44.24;99385.38;5063418;28;20035;-68
2021/01/14 08:22:05;;;;;;;8.83;3.87;;;;;;;4.98;43.84;99381.50;5062552;28;20032;-68
2021/01/14 08:24:53;;;;;;;11.83;4.37;;;;;;;5.02;43.51;99385.53;5050450;28;20029;-67
2021/01/14 08:27:21;;;;;;;16.10;5.00;;;;;;;4.89;43.03;99402.47;5043859;28;20041;-66
2021/01/14 08:30:18;;;;;;;12.10;4.90;;;;;;;4.88;43.76;99398.19;5043403;28;20089;-68
2021/01/14 08:32:59;;;;;;;19.23;5.10;;;;;;;4.87;43.89;99397.38;5043731;28;20030;-66
2021/01/14 08:35:30;;;;;;;10.27;4.03;;;;;;;4.82;44.16;99397.78;5043268;28;20088;-68
2021/01/14 08:37:58;;;;;;;9.43;3.83;;;;;;;5.07;44.64;99403.50;5043824;28;20041;-68
2021/01/14 08:40:23;;;;;;;16.77;5.60;;;;;;;5.35;44.76;99396.66;5042978;28;20022;-68
2021/01/14 08:43:13;;;;;;;12.20;5.50;;;;;;;5.71;43.80;99389.88;5043808;28;20041;-66
2021/01/14 08:45:45;;;;;;;13.13;4.30;;;;;;;5.47;43.32;99379.78;5041992;28;20021;-68
2021/01/14 08:48:31;;;;;;;12.07;4.33;;;;;;;5.48;43.91;99367.50;5042936;28;20337;-68
2021/01/14 08:50:58;;;;;;;12.10;4.73;;;;;;;5.52;44.58;99372.31;5041870;28;20025;-66
2021/01/14 08:53:34;;;;;;;11.43;4.13;;;;;;;5.54;44.80;99369.56;5042944;28;20292;-66
2021/01/14 08:56:07;;;;;;;7.40;3.30;;;;;;;5.36;43.11;99359.75;5042315;28;20025;-66
2021/01/14 08:58:33;;;;;;;7.17;3.37;;;;;;;5.44;43.30;99348.56;5054884;28;20024;-66
2021/01/14 09:00:59;;;;;;;10.70;3.80;;;;;;;5.55;43.21;99356.28;5062737;28;20330;-68
2021/01/14 09:03:27;;;;;;;7.70;2.80;;;;;;;5.66;41.97;99342.19;5062728;28;20031;-66
2021/01/14 09:05:55;;;;;;;3.33;1.70;;;;;;;5.44;41.55;99309.19;5061512;28;20021;-68
2021/01/14 09:08:21;;;;;;;8.57;2.57;;;;;;;5.52;42.30;99330.31;5062786;28;20133;-68
2021/01/14 09:10:52;;;;;;;9.70;3.10;;;;;;;5.47;42.61;99340.41;5061349;28;20104;-66
2021/01/14 09:13:25;;;;;;;7.13;2.35;;;;;;;5.63;43.16;99350.34;5062562;28;20051;-66
2021/01/14 09:15:53;;;;;;;10.83;3.47;;;;;;;5.60;42.92;99343.56;5062795;28;20045;-68
2021/01/14 09:18:29;;;;;;;6.57;2.23;;;;;;;5.68;43.18;99342.88;5062607;28;20254;-68
2021/01/14 09:20:55;;;;;;;5.67;2.40;;;;;;;5.61;42.05;99339.16;5062526;28;20056;-66
2021/01/14 09:23:32;;;;;;;9.97;3.10;;;;;;;5.45;42.19;99334.47;5062653;28;20338;-68
2021/01/14 09:26:04;;;;;;;15.97;4.87;;;;;;;5.39;41.50;99327.97;5062509;28;20029;-66
2021/01/14 09:28:32;;;;;;;9.93;3.73;;;;;;;5.71;41.95;99329.44;5062486;28;20315;-68
2021/01/14 09:31:04;;;;;;;6.60;2.30;;;;;;;5.84;40.43;99316.00;5061300;28;20059;-66
2021/01/14 09:33:33;;;;;;;6.57;2.50;;;;;;;5.96;40.35;99314.91;5062271;28;20104;-66
2021/01/14 09:36:00;;;;;;;7.40;2.57;;;;;;;6.11;40.06;99297.69;5062479;28;20036;-66
2021/01/14 09:38:26;;;;;;;38.22;12.45;;;;;;;6.15;39.66;99287.72;5062415;28;20246;-66
2021/01/14 09:40:53;;;;;;;11.57;4.38;;;;;;;6.26;39.44;99270.00;5062276;28;20405;-68
2021/01/14 09:43:19;;;;;;;5.27;2.60;;;;;;;6.04;38.17;99255.41;5062707;28;20025;-66
2021/01/14 09:45:47;;;;;;;27.87;7.63;;;;;;;6.01;39.49;99247.78;5062310;28;20025;-68
2021/01/14 09:48:13;;;;;;;7.80;2.73;;;;;;;6.09;39.68;99250.53;5062206;28;20067;-66
2021/01/14 09:50:40;;;;;;;8.40;2.53;;;;;;;6.05;40.21;99235.19;5062319;28;20029;-66
2021/01/14 09:53:09;;;;;;;9.75;2.67;;;;;;;6.13;41.09;99239.72;5062724;28;20059;-68
2021/01/14 09:55:35;;;;;;;8.85;4.15;;;;;;;6.27;41.25;99231.38;5062192;28;20036;-66
2021/01/14 09:58:02;;;;;;;7.72;2.95;;;;;;;6.17;39.59;99204.28;5055149;28;20064;-66
2021/01/14 10:00:29;;;;;;;5.90;2.93;;;;;;;6.03;38.89;99200.34;5042093;28;20045;-66
2021/01/14 10:03:04;;;;;;;9.32;3.17;;;;;;;6.00;39.51;99203.25;5042702;28;20036;-68
2021/01/14 10:05:31;;;;;;;6.85;3.25;;;;;;;5.95;40.15;99189.75;5042137;28;20350;-66
2021/01/14 10:08:01;;;;;;;6.22;3.15;;;;;;;5.94;39.43;99186.28;5046330;28;20048;-68
2021/01/14 10:10:30;;;;;;;8.00;3.83;;;;;;;5.89;39.83;99187.66;5045977;28;20295;-68
2021/01/14 10:13:00;;;;;;;12.23;6.05;;;;;;;5.98;41.15;99184.19;5045873;28;20151;-68
2021/01/14 10:15:26;;;;;;;14.53;6.77;;;;;;;6.17;40.63;99183.25;5045872;28;20339;-68
2021/01/14 10:17:52;;;;;;;20.63;6.47;;;;;;;5.98;41.64;99173.69;5044916;28;20044;-77
2021/01/14 10:20:18;;;;;;;7.60;3.47;;;;;;;6.14;39.85;99163.34;5045454;28;20065;-71
2021/01/14 10:22:53;;;;;;;12.98;4.80;;;;;;;6.22;39.81;99158.16;5046162;28;20092;-68
2021/01/14 10:25:21;;;;;;;9.35;3.60;;;;;;;6.33;38.27;99142.22;5045649;28;20041;-71
2021/01/14 10:28:00;;;;;;;8.65;3.35;;;;;;;6.28;38.68;99133.94;5044516;28;20040;-73
2021/01/14 10:30:27;;;;;;;9.35;3.13;;;;;;;6.38;38.70;99112.84;5045699;28;20332;-76
2021/01/14 10:33:00;;;;;;;15.00;6.10;;;;;;;6.47;38.82;99103.22;5045618;28;20035;-70
2021/01/14 10:35:27;;;;;;;11.25;4.38;;;;;;;6.49;37.27;99098.63;5045651;28;20036;-67
2021/01/14 10:38:03;;;;;;;7.07;2.97;;;;;;;6.46;36.88;99089.25;5045526;28;20029;-66
2021/01/14 10:40:40;;;;;;;9.73;3.30;;;;;;;6.51;37.34;99075.63;5045444;28;20296;-71
2021/01/14 10:43:07;;;;;;;9.15;4.20;;;;;;;6.44;36.35;99064.91;5046050;28;20034;-73
2021/01/14 10:45:35;;;;;;;7.85;3.63;;;;;;;6.41;35.84;99052.06;5044321;28;20040;-74
2021/01/14 10:48:10;;;;;;;5.22;2.35;;;;;;;6.43;35.69;99052.72;5045689;28;20029;-65
2021/01/14 10:50:49;;;;;;;6.88;2.85;;;;;;;6.37;36.18;99009.47;5045203;28;20180;-72
2021/01/14 10:53:34;;;;;;;7.75;3.40;;;;;;;6.69;36.76;99056.22;5045268;28;20037;-69
2021/01/14 10:56:11;;;;;;;11.30;4.55;;;;;;;6.59;36.73;99054.66;5045223;28;20033;-64
2021/01/14 10:58:38;;;;;;;8.73;3.55;;;;;;;6.62;37.15;99033.31;5057494;28;20037;-70
2021/01/14 11:01:17;;;;;;;21.65;10.73;;;;;;;6.20;37.76;99033.94;5064858;28;20029;-65
2021/01/14 11:03:43;;;;;;;7.03;2.90;;;;;;;5.93;38.38;99024.34;5064941;28;20041;-68
2021/01/14 11:06:08;;;;;;;6.77;2.60;;;;;;;5.43;38.33;98992.44;5064845;28;20029;-75
2021/01/14 11:08:39;;;;;;;6.80;3.25;;;;;;;5.44;39.14;99025.59;5064929;28;20029;-68
2021/01/14 11:11:06;;;;;;;6.03;3.15;;;;;;;5.50;39.42;99018.94;5064505;28;20037;-68
2021/01/14 11:13:39;;;;;;;11.85;4.55;;;;;;;5.73;40.88;99017.53;5064764;28;20094;-70
2021/01/14 11:16:07;;;;;;;6.25;2.75;;;;;;;6.04;38.77;99015.41;5063490;28;20334;-68
2021/01/14 11:18:40;;;;;;;11.83;5.83;;;;;;;6.08;38.74;99019.38;5063989;28;20104;-70
2021/01/14 11:21:06;;;;;;;8.93;3.60;;;;;;;6.15;39.16;99035.38;5063282;28;20045;-66
2021/01/14 11:23:32;;;;;;;8.20;3.60;;;;;;;6.08;40.12;99029.91;5064830;28;20234;-63
2021/01/14 11:26:01;;;;;;;8.23;3.63;;;;;;;6.27;37.72;99035.03;5064485;28;20024;-60
2021/01/14 11:28:27;;;;;;;8.88;3.45;;;;;;;6.35;38.89;99037.72;5064469;28;20296;-65
2021/01/14 11:30:53;;;;;;;8.13;3.53;;;;;;;6.36;39.01;99030.66;5064157;28;20116;-64
2021/01/14 11:33:18;;;;;;;7.53;2.60;;;;;;;6.48;38.92;99028.59;5063014;28;20033;-63
2021/01/14 11:35:44;;;;;;;5.60;2.30;;;;;;;6.41;36.66;99020.50;5064233;28;20084;-67
2021/01/14 11:38:10;;;;;;;5.72;2.80;;;;;;;6.59;37.04;99015.19;5064203;28;20071;-69
2021/01/14 11:40:35;;;;;;;9.93;4.15;;;;;;;6.30;36.69;99008.41;5064020;28;20021;-67
2021/01/14 11:43:01;;;;;;;23.17;8.85;;;;;;;6.44;37.06;98998.31;5064738;28;20029;-65
2021/01/14 11:45:27;;;;;;;12.77;6.85;;;;;;;6.62;37.79;99005.19;5064331;28;20051;-64
2021/01/14 11:47:52;;;;;;;15.02;11.38;;;;;;;6.49;37.14;98990.81;5064569;28;20310;-72